createdAt,value
2018-12-10T00:00:20.480Z,55.27
2018-12-10T00:01:20.489Z,55.20
2018-12-10T00:02:20.577Z,55.20
2018-12-10T00:03:20.495Z,55.08
2018-12-10T00:04:20.501Z,55.18
2018-12-10T00:05:20.503Z,55.30
2018-12-10T00:06:20.507Z,55.10
2018-12-10T00:07:20.515Z,55.40
2018-12-10T00:08:20.515Z,55.36
2018-12-10T00:09:20.518Z,55.30
2018-12-10T00:10:20.547Z,55.27
2018-12-10T00:11:20.624Z,55.01
2018-12-10T00:12:20.535Z,54.88
2018-12-10T00:13:20.538Z,55.01
2018-12-10T00:14:20.549Z,55.20
2018-12-10T00:15:20.549Z,55.20
2018-12-10T00:16:20.553Z,55.20
2018-12-10T00:17:20.555Z,55.18
2018-12-10T00:18:20.559Z,55.30
2018-12-10T00:19:20.573Z,55.10
2018-12-10T00:20:20.575Z,55.08
2018-12-10T00:21:20.573Z,55.20
2018-12-10T00:22:20.581Z,54.98
2018-12-10T00:23:20.599Z,55.30
2018-12-10T00:24:20.590Z,55.94
2018-12-10T00:25:20.593Z,55.88
2018-12-10T00:26:20.598Z,55.85
2018-12-10T00:27:20.601Z,55.88
2018-12-10T00:28:20.605Z,55.68
2018-12-10T00:29:20.609Z,55.59
2018-12-10T00:30:20.616Z,55.59
2018-12-10T00:31:20.629Z,55.68
2018-12-10T00:32:20.621Z,55.98
2018-12-10T00:33:20.626Z,56.07
2018-12-10T00:34:20.627Z,55.88
2018-12-10T00:35:20.635Z,55.59
2018-12-10T00:36:20.643Z,55.59
2018-12-10T00:37:20.645Z,55.78
2018-12-10T00:38:20.651Z,55.56
2018-12-10T00:39:20.654Z,55.98
2018-12-10T00:40:20.655Z,55.85
2018-12-10T00:41:20.664Z,55.78
2018-12-10T00:42:20.666Z,55.68
2018-12-10T00:43:20.673Z,56.07
2018-12-10T00:44:20.680Z,55.68
2018-12-10T00:45:20.680Z,55.88
2018-12-10T00:46:22.553Z,55.88
2018-12-10T00:47:20.684Z,55.88
2018-12-10T00:48:20.706Z,55.88
2018-12-10T00:49:20.698Z,55.66
2018-12-10T00:50:20.704Z,55.98
2018-12-10T00:51:20.708Z,55.68
2018-12-10T00:52:20.712Z,55.88
2018-12-10T00:53:20.732Z,55.98
2018-12-10T00:54:20.725Z,55.76
2018-12-10T00:55:20.736Z,55.98
2018-12-10T00:56:20.728Z,55.85
2018-12-10T00:57:20.723Z,55.88
2018-12-10T00:58:20.736Z,55.85
2018-12-10T00:59:20.751Z,55.68
2018-12-10T01:00:20.744Z,55.88
2018-12-10T01:01:20.748Z,55.98
2018-12-10T01:02:20.751Z,55.10
2018-12-10T01:03:20.760Z,54.98
2018-12-10T01:04:20.762Z,55.27
2018-12-10T01:05:20.769Z,55.08
2018-12-10T01:06:20.774Z,55.20
2018-12-10T01:07:20.776Z,54.88
2018-12-10T01:08:20.780Z,54.98
2018-12-10T01:09:20.815Z,54.82
2018-12-10T01:10:20.788Z,54.62
2018-12-10T01:11:20.796Z,54.40
2018-12-10T01:12:20.802Z,54.69
2018-12-10T01:13:20.800Z,54.69
2018-12-10T01:14:20.810Z,54.79
2018-12-10T01:15:20.812Z,54.79
2018-12-10T01:16:20.814Z,54.72
2018-12-10T01:17:20.820Z,54.82
2018-12-10T01:18:20.826Z,54.72
2018-12-10T01:19:20.826Z,54.60
2018-12-10T01:20:20.836Z,54.69
2018-12-10T01:21:20.836Z,54.69
2018-12-10T01:22:20.854Z,54.98
2018-12-10T01:23:20.851Z,54.40
2018-12-10T01:24:20.848Z,54.98
2018-12-10T01:25:20.858Z,55.01
2018-12-10T01:26:20.856Z,54.98
2018-12-10T01:27:20.866Z,54.88
2018-12-10T01:28:20.913Z,54.98
2018-12-10T01:29:20.872Z,54.69
2018-12-10T01:30:20.876Z,54.91
2018-12-10T01:31:20.884Z,54.60
2018-12-10T01:32:20.891Z,55.08
2018-12-10T01:33:20.891Z,55.20
2018-12-10T01:34:20.894Z,55.30
2018-12-10T01:35:20.895Z,55.30
2018-12-10T01:36:20.906Z,54.91
2018-12-10T01:37:20.909Z,55.27
2018-12-10T01:38:20.902Z,54.91
2018-12-10T01:39:20.920Z,55.01
2018-12-10T01:40:20.920Z,55.01
2018-12-10T01:41:20.925Z,55.10
2018-12-10T01:42:20.931Z,55.20
2018-12-10T01:43:20.930Z,55.18
2018-12-10T01:44:20.944Z,55.10
2018-12-10T01:45:20.940Z,55.20
2018-12-10T01:46:20.948Z,55.18
2018-12-10T01:47:20.956Z,55.40
2018-12-10T01:48:20.956Z,55.18
2018-12-10T01:49:20.959Z,55.18
2018-12-10T01:50:20.960Z,55.10
2018-12-10T01:51:20.973Z,55.27
2018-12-10T01:52:20.972Z,55.36
2018-12-10T01:53:20.980Z,55.20
2018-12-10T01:54:20.993Z,55.30
2018-12-10T01:55:20.989Z,55.20
2018-12-10T01:56:21.004Z,55.01
2018-12-10T01:57:21.003Z,55.01
2018-12-10T01:58:20.999Z,55.20
2018-12-10T01:59:21.010Z,55.10
2018-12-10T02:00:21.007Z,55.18
2018-12-10T02:01:21.011Z,55.18
2018-12-10T02:02:21.019Z,55.20
2018-12-10T02:03:21.025Z,55.20
2018-12-10T02:04:21.032Z,55.20
2018-12-10T02:05:21.033Z,55.27
2018-12-10T02:06:21.037Z,55.78
2018-12-10T02:07:21.043Z,55.78
2018-12-10T02:08:21.058Z,55.78
2018-12-10T02:09:21.045Z,55.76
2018-12-10T02:10:21.053Z,55.94
2018-12-10T02:11:21.053Z,55.88
2018-12-10T02:12:21.057Z,55.88
2018-12-10T02:13:21.063Z,55.85
2018-12-10T02:14:21.069Z,55.88
2018-12-10T02:15:21.075Z,55.59
2018-12-10T02:16:21.083Z,55.85
2018-12-10T02:17:21.081Z,55.66
2018-12-10T02:18:21.085Z,55.56
2018-12-10T02:19:21.105Z,55.66
2018-12-10T02:20:21.098Z,55.66
2018-12-10T02:21:21.103Z,55.85
2018-12-10T02:22:21.105Z,55.68
2018-12-10T02:23:21.109Z,55.98
2018-12-10T02:24:21.119Z,55.88
2018-12-10T02:25:21.129Z,56.04
2018-12-10T02:26:21.121Z,55.59
2018-12-10T02:27:21.131Z,55.78
2018-12-10T02:28:21.125Z,55.78
2018-12-10T02:29:21.151Z,55.20
2018-12-10T02:30:21.129Z,55.30
2018-12-10T02:31:21.135Z,55.10
2018-12-10T02:32:21.151Z,55.01
2018-12-10T02:33:21.177Z,54.62
2018-12-10T02:34:21.163Z,55.01
2018-12-10T02:35:21.162Z,55.01
2018-12-10T02:36:21.173Z,54.33
2018-12-10T02:37:21.178Z,54.50
2018-12-10T02:38:21.177Z,54.91
2018-12-10T02:39:21.174Z,54.79
2018-12-10T02:40:21.188Z,54.88
2018-12-10T02:41:21.187Z,54.82
2018-12-10T02:42:21.192Z,54.82
2018-12-10T02:43:21.202Z,54.79
2018-12-10T02:44:21.210Z,54.31
2018-12-10T02:45:21.207Z,54.24
2018-12-10T02:46:21.214Z,54.02
2018-12-10T02:47:21.218Z,54.50
2018-12-10T02:48:21.240Z,54.31
2018-12-10T02:49:21.224Z,54.69
2018-12-10T02:50:21.232Z,54.60
2018-12-10T02:51:21.231Z,54.69
2018-12-10T02:52:21.240Z,54.79
2018-12-10T02:53:21.243Z,54.69
2018-12-10T02:54:21.248Z,54.50
2018-12-10T02:55:21.254Z,54.60
2018-12-10T02:56:21.256Z,54.50
2018-12-10T02:57:21.255Z,54.69
2018-12-10T02:58:21.277Z,54.60
2018-12-10T02:59:21.270Z,54.50
2018-12-10T03:00:21.274Z,54.69
2018-12-10T03:01:21.277Z,54.31
2018-12-10T03:02:21.282Z,54.79
2018-12-10T03:03:21.286Z,54.91
2018-12-10T03:04:21.297Z,54.98
2018-12-10T03:05:21.290Z,54.98
2018-12-10T03:06:21.299Z,54.88
2018-12-10T03:07:21.287Z,54.88
2018-12-10T03:08:21.308Z,54.98
2018-12-10T03:09:21.321Z,55.08
2018-12-10T03:10:21.308Z,54.98
2018-12-10T03:11:21.328Z,54.69
2018-12-10T03:12:21.332Z,54.79
2018-12-10T03:13:21.327Z,54.69
2018-12-10T03:14:21.336Z,54.69
2018-12-10T03:15:21.351Z,55.27
2018-12-10T03:16:21.347Z,54.60
2018-12-10T03:17:21.343Z,55.08
2018-12-10T03:18:21.357Z,55.08
2018-12-10T03:19:21.354Z,55.08
2018-12-10T03:20:21.359Z,54.69
2018-12-10T03:21:21.367Z,55.08
2018-12-10T03:22:21.365Z,55.18
2018-12-10T03:23:21.377Z,55.18
2018-12-10T03:24:21.377Z,55.08
2018-12-10T03:25:21.381Z,54.98
2018-12-10T03:26:21.393Z,54.98
2018-12-10T03:27:21.392Z,54.98
2018-12-10T03:28:21.403Z,54.98
2018-12-10T03:29:21.409Z,54.88
2018-12-10T03:30:21.415Z,55.08
2018-12-10T03:31:21.413Z,55.27
2018-12-10T03:32:21.415Z,55.18
2018-12-10T03:33:21.456Z,55.30
2018-12-10T03:34:21.420Z,55.18
2018-12-10T03:35:21.425Z,55.10
2018-12-10T03:36:21.430Z,55.08
2018-12-10T03:37:21.431Z,55.18
2018-12-10T03:38:21.435Z,55.08
2018-12-10T03:39:21.446Z,55.10
2018-12-10T03:40:21.454Z,55.10
2018-12-10T03:41:21.452Z,55.08
2018-12-10T03:42:21.453Z,54.98
2018-12-10T03:43:21.452Z,55.18
2018-12-10T03:44:21.460Z,55.27
2018-12-10T03:45:21.467Z,55.18
2018-12-10T03:46:21.469Z,55.27
2018-12-10T03:47:21.477Z,55.36
2018-12-10T03:48:21.480Z,55.36
2018-12-10T03:49:21.481Z,55.18
2018-12-10T03:50:21.490Z,54.98
2018-12-10T03:51:21.492Z,55.18
2018-12-10T03:52:21.506Z,55.18
2018-12-10T03:53:21.502Z,55.18
2018-12-10T03:54:22.474Z,55.66
2018-12-10T03:55:21.510Z,55.08
2018-12-10T03:56:21.526Z,55.18
2018-12-10T03:57:21.530Z,55.94
2018-12-10T03:58:21.543Z,55.66
2018-12-10T03:59:21.526Z,55.56
2018-12-10T04:00:21.537Z,55.85
2018-12-10T04:01:21.537Z,55.66
2018-12-10T04:02:21.699Z,55.76
2018-12-10T04:03:21.544Z,55.85
2018-12-10T04:04:21.637Z,55.66
2018-12-10T04:05:21.552Z,55.76
2018-12-10T04:06:21.577Z,55.27
2018-12-10T04:07:21.565Z,55.27
2018-12-10T04:08:21.568Z,55.36
2018-12-10T04:09:21.574Z,55.56
2018-12-10T04:10:21.570Z,55.46
2018-12-10T04:11:21.579Z,55.46
2018-12-10T04:12:21.585Z,55.66
2018-12-10T04:13:21.592Z,55.56
2018-12-10T04:14:21.595Z,56.14
2018-12-10T04:15:21.592Z,55.56
2018-12-10T04:16:21.619Z,56.14
2018-12-10T04:17:21.607Z,55.56
2018-12-10T04:18:21.613Z,55.56
2018-12-10T04:19:21.619Z,55.76
2018-12-10T04:20:21.635Z,55.85
2018-12-10T04:21:21.620Z,56.24
2018-12-10T04:22:21.627Z,56.14
2018-12-10T04:23:21.632Z,56.24
2018-12-10T04:24:21.639Z,56.24
2018-12-10T04:25:21.639Z,55.85
2018-12-10T04:26:21.642Z,56.14
2018-12-10T04:27:21.651Z,56.14
2018-12-10T04:28:21.660Z,56.04
2018-12-10T04:29:21.680Z,56.24
2018-12-10T04:30:21.679Z,56.14
2018-12-10T04:31:21.666Z,56.14
2018-12-10T04:32:21.674Z,56.04
2018-12-10T04:33:21.675Z,56.33
2018-12-10T04:34:21.705Z,56.33
2018-12-10T04:35:21.689Z,56.14
2018-12-10T04:36:21.706Z,56.14
2018-12-10T04:37:21.686Z,56.14
2018-12-10T04:38:21.706Z,56.33
2018-12-10T04:39:21.700Z,56.14
2018-12-10T04:40:21.766Z,56.14
2018-12-10T04:41:21.708Z,55.85
2018-12-10T04:42:21.751Z,56.14
2018-12-10T04:43:21.716Z,56.24
2018-12-10T04:44:21.811Z,56.14
2018-12-10T04:45:21.731Z,56.14
2018-12-10T04:46:21.734Z,55.85
2018-12-10T04:47:21.745Z,56.33
2018-12-10T04:48:21.751Z,55.66
2018-12-10T04:49:21.746Z,55.56
2018-12-10T04:50:21.774Z,55.66
2018-12-10T04:51:21.760Z,55.56
2018-12-10T04:52:21.760Z,55.46
2018-12-10T04:53:21.768Z,55.46
2018-12-10T04:54:21.777Z,55.66
2018-12-10T04:55:21.774Z,55.46
2018-12-10T04:56:21.783Z,55.56
2018-12-10T04:57:21.778Z,55.66
2018-12-10T04:58:21.866Z,55.66
2018-12-10T04:59:21.792Z,55.36
2018-12-10T05:00:21.801Z,55.66
2018-12-10T05:01:21.792Z,55.66
2018-12-10T05:02:21.798Z,55.76
2018-12-10T05:03:21.808Z,55.27
2018-12-10T05:04:21.813Z,55.27
2018-12-10T05:05:21.808Z,55.27
2018-12-10T05:06:21.816Z,55.46
2018-12-10T05:07:21.822Z,55.56
2018-12-10T05:08:21.828Z,55.27
2018-12-10T05:09:21.830Z,55.76
2018-12-10T05:10:21.835Z,55.27
2018-12-10T05:11:21.837Z,55.56
2018-12-10T05:12:21.842Z,55.66
2018-12-10T05:13:21.962Z,55.56
2018-12-10T05:14:21.850Z,55.66
2018-12-10T05:15:21.855Z,55.76
2018-12-10T05:16:21.859Z,55.76
2018-12-10T05:17:21.864Z,55.76
2018-12-10T05:18:21.869Z,55.76
2018-12-10T05:19:21.874Z,55.76
2018-12-10T05:20:21.877Z,55.66
2018-12-10T05:21:21.883Z,55.27
2018-12-10T05:22:21.884Z,55.27
2018-12-10T05:23:21.885Z,55.46
2018-12-10T05:24:21.903Z,55.27
2018-12-10T05:25:21.901Z,55.36
2018-12-10T05:26:21.911Z,55.56
2018-12-10T05:27:21.920Z,55.46
2018-12-10T05:28:21.913Z,55.76
2018-12-10T05:29:21.911Z,55.46
2018-12-10T05:30:21.920Z,55.46
2018-12-10T05:31:21.974Z,55.56
2018-12-10T05:32:21.931Z,55.85
2018-12-10T05:33:21.943Z,55.76
2018-12-10T05:34:21.933Z,55.85
2018-12-10T05:35:21.943Z,55.66
2018-12-10T05:36:21.939Z,55.66
2018-12-10T05:37:21.951Z,55.56
2018-12-10T05:38:21.953Z,55.46
2018-12-10T05:39:21.961Z,55.56
2018-12-10T05:40:21.957Z,55.66
2018-12-10T05:41:21.966Z,56.14
2018-12-10T05:42:21.966Z,56.14
2018-12-10T05:43:21.979Z,56.04
2018-12-10T05:44:21.986Z,56.33
2018-12-10T05:45:21.983Z,56.33
2018-12-10T05:46:21.989Z,56.24
2018-12-10T05:47:21.989Z,56.24
2018-12-10T05:48:22.005Z,56.24
2018-12-10T05:49:21.999Z,55.85
2018-12-10T05:50:22.007Z,56.24
2018-12-10T05:51:22.007Z,56.14
2018-12-10T05:52:22.011Z,56.24
2018-12-10T05:53:22.020Z,56.14
2018-12-10T05:54:22.025Z,55.76
2018-12-10T05:55:22.112Z,55.76
2018-12-10T05:56:22.034Z,55.85
2018-12-10T05:57:22.104Z,55.85
2018-12-10T05:58:22.039Z,56.14
2018-12-10T05:59:22.045Z,55.85
2018-12-10T06:00:22.049Z,55.76
2018-12-10T06:01:22.054Z,55.76
2018-12-10T06:02:22.055Z,55.85
2018-12-10T06:03:22.064Z,56.04
2018-12-10T06:04:22.069Z,56.24
2018-12-10T06:05:22.065Z,56.14
2018-12-10T06:06:22.075Z,56.14
2018-12-10T06:07:22.086Z,56.14
2018-12-10T06:08:22.079Z,55.85
2018-12-10T06:09:22.087Z,55.76
2018-12-10T06:10:22.087Z,56.04
2018-12-10T06:11:22.097Z,56.04
2018-12-10T06:12:22.097Z,56.04
2018-12-10T06:13:22.089Z,55.85
2018-12-10T06:14:22.105Z,56.04
2018-12-10T06:15:22.120Z,55.76
2018-12-10T06:16:22.128Z,56.04
2018-12-10T06:17:22.130Z,55.85
2018-12-10T06:18:22.123Z,56.04
2018-12-10T06:19:22.143Z,55.94
2018-12-10T06:20:22.131Z,56.04
2018-12-10T06:21:22.145Z,56.11
2018-12-10T06:22:22.140Z,55.85
2018-12-10T06:23:22.293Z,56.04
2018-12-10T06:24:22.154Z,55.94
2018-12-10T06:25:22.169Z,55.92
2018-12-10T06:26:22.162Z,55.94
2018-12-10T06:27:22.162Z,55.85
2018-12-10T06:28:22.168Z,55.94
2018-12-10T06:29:22.178Z,56.01
2018-12-10T06:30:22.185Z,55.94
2018-12-10T06:31:22.297Z,56.04
2018-12-10T06:32:22.181Z,56.01
2018-12-10T06:33:22.194Z,56.01
2018-12-10T06:34:22.195Z,55.85
2018-12-10T06:35:22.193Z,55.92
2018-12-10T06:36:22.203Z,55.92
2018-12-10T06:37:22.220Z,56.01
2018-12-10T06:38:22.206Z,56.01
2018-12-10T06:39:22.226Z,55.76
2018-12-10T06:40:22.215Z,55.92
2018-12-10T06:41:22.221Z,56.04
2018-12-10T06:42:22.231Z,56.11
2018-12-10T06:43:22.235Z,56.01
2018-12-10T06:44:22.237Z,55.92
2018-12-10T06:45:22.245Z,56.01
2018-12-10T06:46:22.239Z,55.82
2018-12-10T06:47:22.239Z,55.73
2018-12-10T06:48:22.250Z,55.92
2018-12-10T06:49:22.262Z,56.01
2018-12-10T06:50:22.259Z,55.82
2018-12-10T06:51:22.262Z,55.92
2018-12-10T06:52:22.273Z,56.11
2018-12-10T06:53:22.271Z,55.73
2018-12-10T06:54:22.280Z,55.92
2018-12-10T06:55:22.281Z,56.01
2018-12-10T06:56:22.279Z,56.01
2018-12-10T06:57:22.279Z,55.82
2018-12-10T06:58:22.287Z,55.82
2018-12-10T06:59:22.308Z,56.04
2018-12-10T07:00:22.295Z,55.82
2018-12-10T07:01:22.310Z,56.01
2018-12-10T07:02:22.306Z,55.94
2018-12-10T07:03:22.313Z,55.82
2018-12-10T07:04:22.315Z,55.82
2018-12-10T07:05:22.341Z,56.21
2018-12-10T07:06:22.338Z,56.14
2018-12-10T07:07:23.039Z,56.11
2018-12-10T07:08:22.335Z,55.63
2018-12-10T07:09:22.332Z,55.63
2018-12-10T07:10:22.343Z,55.73
2018-12-10T07:11:22.350Z,55.85
2018-12-10T07:12:22.349Z,55.18
2018-12-10T07:13:22.355Z,55.18
2018-12-10T07:14:22.453Z,54.98
2018-12-10T07:15:22.366Z,55.08
2018-12-10T07:16:22.365Z,54.98
2018-12-10T07:17:22.385Z,54.79
2018-12-10T07:18:22.376Z,54.60
2018-12-10T07:19:22.418Z,54.50
2018-12-10T07:20:22.486Z,54.69
2018-12-10T07:21:22.387Z,54.50
2018-12-10T07:22:22.394Z,54.31
2018-12-10T07:23:22.399Z,54.31
2018-12-10T07:24:22.403Z,54.31
2018-12-10T07:25:22.418Z,54.60
2018-12-10T07:26:22.409Z,54.60
2018-12-10T07:27:22.410Z,54.40
2018-12-10T07:28:22.417Z,54.11
2018-12-10T07:29:22.423Z,54.21
2018-12-10T07:30:22.422Z,54.02
2018-12-10T07:31:22.433Z,54.21
2018-12-10T07:32:22.453Z,54.11
2018-12-10T07:33:22.435Z,54.21
2018-12-10T07:34:22.437Z,54.31
2018-12-10T07:35:22.444Z,54.31
2018-12-10T07:36:22.447Z,54.02
2018-12-10T07:37:22.453Z,54.31
2018-12-10T07:38:22.456Z,54.11
2018-12-10T07:39:22.461Z,54.11
2018-12-10T07:40:22.470Z,53.92
2018-12-10T07:41:22.467Z,54.02
2018-12-10T07:42:22.473Z,53.92
2018-12-10T07:43:22.477Z,53.92
2018-12-10T07:44:22.483Z,53.92
2018-12-10T07:45:22.490Z,53.25
2018-12-10T07:46:22.493Z,53.15
2018-12-10T07:47:22.496Z,53.34
2018-12-10T07:48:22.495Z,53.25
2018-12-10T07:49:22.501Z,53.25
2018-12-10T07:50:22.598Z,53.53
2018-12-10T07:51:22.505Z,53.34
2018-12-10T07:52:22.517Z,53.44
2018-12-10T07:53:22.517Z,53.53
2018-12-10T07:54:22.531Z,53.05
2018-12-10T07:55:22.523Z,53.44
2018-12-10T07:56:28.944Z,54.11
2018-12-10T07:57:22.540Z,54.31
2018-12-10T07:58:22.541Z,55.82
2018-12-10T07:59:22.541Z,56.14
2018-12-10T08:00:22.549Z,56.14
2018-12-10T08:01:22.552Z,56.72
2018-12-10T08:02:22.560Z,56.72
2018-12-10T08:03:22.556Z,57.39
2018-12-10T08:04:22.564Z,56.91
2018-12-10T08:05:22.568Z,57.10
2018-12-10T08:06:22.619Z,56.33
2018-12-10T08:07:22.577Z,56.14
2018-12-10T08:08:22.578Z,57.01
2018-12-10T08:09:22.586Z,56.33
2018-12-10T08:10:22.590Z,56.33
2018-12-10T08:11:22.590Z,56.33
2018-12-10T08:12:22.600Z,56.14
2018-12-10T08:13:22.614Z,55.46
2018-12-10T08:14:22.606Z,55.76
2018-12-10T08:15:22.616Z,55.94
2018-12-10T08:16:22.614Z,55.18
2018-12-10T08:17:22.613Z,54.69
2018-12-10T08:18:22.623Z,54.60
2018-12-10T08:19:22.624Z,54.31
2018-12-10T08:20:22.636Z,54.60
2018-12-10T08:21:22.635Z,54.69
2018-12-10T08:22:22.646Z,54.79
2018-12-10T08:23:22.683Z,54.50
2018-12-10T08:24:22.649Z,54.50
2018-12-10T08:25:23.340Z,54.98
2018-12-10T08:26:22.653Z,54.79
2018-12-10T08:27:22.661Z,54.88
2018-12-10T08:28:22.666Z,54.98
2018-12-10T08:29:22.663Z,54.69
2018-12-10T08:30:22.681Z,54.79
2018-12-10T08:31:22.675Z,54.69
2018-12-10T08:32:22.774Z,54.11
2018-12-10T08:33:22.683Z,54.31
2018-12-10T08:34:22.693Z,54.50
2018-12-10T08:35:22.689Z,54.40
2018-12-10T08:36:22.689Z,54.69
2018-12-10T08:37:22.706Z,54.18
2018-12-10T08:38:22.719Z,54.21
2018-12-10T08:39:22.720Z,54.66
2018-12-10T08:40:22.855Z,54.40
2018-12-10T08:41:22.787Z,54.50
2018-12-10T08:42:22.721Z,54.09
2018-12-10T08:43:22.726Z,53.92
2018-12-10T08:44:22.717Z,53.99
2018-12-10T08:45:22.733Z,54.21
2018-12-10T08:46:22.744Z,54.09
2018-12-10T08:47:22.742Z,54.09
2018-12-10T08:48:22.747Z,53.99
2018-12-10T08:49:22.759Z,53.44
2018-12-10T08:50:22.752Z,53.31
2018-12-10T08:51:22.757Z,52.83
2018-12-10T08:52:22.757Z,52.86
2018-12-10T08:53:22.765Z,52.86
2018-12-10T08:54:22.769Z,52.28
2018-12-10T08:55:22.773Z,52.55
2018-12-10T08:56:22.782Z,52.16
2018-12-10T08:57:22.784Z,52.09
2018-12-10T08:58:22.783Z,52.35
2018-12-10T08:59:22.809Z,52.35
2018-12-10T09:00:22.792Z,52.47
2018-12-10T09:01:22.796Z,52.37
2018-12-10T09:02:22.801Z,52.37
2018-12-10T09:03:22.808Z,51.89
2018-12-10T09:04:22.815Z,52.09
2018-12-10T09:05:22.812Z,52.47
2018-12-10T09:06:22.816Z,51.80
2018-12-10T09:07:22.819Z,52.19
2018-12-10T09:08:22.840Z,51.80
2018-12-10T09:09:22.830Z,51.99
2018-12-10T09:10:22.835Z,51.89
2018-12-10T09:11:22.834Z,51.89
2018-12-10T09:12:22.846Z,52.19
2018-12-10T09:13:22.854Z,52.47
2018-12-10T09:14:22.850Z,51.99
2018-12-10T09:15:22.855Z,52.09
2018-12-10T09:16:22.859Z,51.61
2018-12-10T09:17:22.862Z,51.89
2018-12-10T09:18:22.862Z,52.28
2018-12-10T09:19:22.876Z,52.09
2018-12-10T09:20:22.877Z,51.89
2018-12-10T09:21:22.882Z,52.67
2018-12-10T09:22:22.887Z,52.37
2018-12-10T09:23:22.896Z,51.89
2018-12-10T09:24:22.888Z,51.89
2018-12-10T09:25:24.734Z,52.37
2018-12-10T09:26:22.902Z,52.37
2018-12-10T09:27:22.904Z,52.37
2018-12-10T09:28:22.910Z,52.37
2018-12-10T09:29:22.920Z,52.57
2018-12-10T09:30:22.915Z,53.25
2018-12-10T09:31:22.926Z,52.95
2018-12-10T09:32:22.925Z,52.76
2018-12-10T09:33:22.927Z,53.25
2018-12-10T09:34:22.928Z,52.95
2018-12-10T09:35:22.938Z,52.86
2018-12-10T09:36:22.938Z,52.86
2018-12-10T09:37:22.945Z,52.67
2018-12-10T09:38:22.940Z,52.95
2018-12-10T09:39:22.979Z,52.86
2018-12-10T09:40:22.957Z,52.86
2018-12-10T09:41:22.962Z,52.47
2018-12-10T09:42:22.966Z,52.67
2018-12-10T09:43:22.972Z,51.89
2018-12-10T09:44:22.979Z,52.57
2018-12-10T09:45:22.964Z,52.67
2018-12-10T09:46:27.460Z,52.57
2018-12-10T09:47:22.989Z,52.19
2018-12-10T09:48:22.989Z,52.86
2018-12-10T09:49:22.999Z,52.67
2018-12-10T09:50:23.005Z,51.99
2018-12-10T09:51:23.003Z,52.47
2018-12-10T09:52:23.010Z,52.37
2018-12-10T09:53:23.016Z,52.19
2018-12-10T09:54:23.018Z,52.28
2018-12-10T09:55:23.022Z,52.19
2018-12-10T09:56:23.020Z,52.37
2018-12-10T09:57:24.764Z,52.37
2018-12-10T09:58:23.028Z,52.37
2018-12-10T09:59:23.036Z,52.57
2018-12-10T10:00:23.043Z,52.37
2018-12-10T10:01:23.047Z,52.28
2018-12-10T10:02:23.054Z,52.57
2018-12-10T10:03:23.050Z,52.28
2018-12-10T10:04:23.058Z,51.99
2018-12-10T10:05:23.057Z,52.57
2018-12-10T10:06:23.069Z,52.37
2018-12-10T10:07:28.446Z,52.67
2018-12-10T10:08:23.074Z,52.37
2018-12-10T10:09:23.074Z,52.57
2018-12-10T10:10:23.087Z,51.89
2018-12-10T10:11:23.088Z,52.09
2018-12-10T10:12:23.719Z,52.09
2018-12-10T10:13:23.100Z,52.37
2018-12-10T10:14:23.110Z,51.99
2018-12-10T10:15:23.104Z,52.09
2018-12-10T10:16:23.118Z,51.89
2018-12-10T10:17:23.117Z,51.99
2018-12-10T10:18:23.118Z,51.99
2018-12-10T10:19:23.121Z,52.09
2018-12-10T10:20:23.620Z,52.19
2018-12-10T10:21:23.126Z,52.47
2018-12-10T10:22:23.147Z,52.67
2018-12-10T10:23:23.142Z,52.28
2018-12-10T10:24:23.137Z,52.57
2018-12-10T10:25:23.141Z,52.09
2018-12-10T10:26:23.145Z,52.37
2018-12-10T10:27:23.155Z,52.95
2018-12-10T10:28:23.159Z,52.95
2018-12-10T10:29:23.163Z,52.95
2018-12-10T10:30:23.161Z,52.86
2018-12-10T10:31:23.169Z,52.67
2018-12-10T10:32:23.173Z,52.64
2018-12-10T10:33:23.189Z,51.77
2018-12-10T10:34:23.183Z,52.76
2018-12-10T10:35:23.187Z,52.45
2018-12-10T10:36:23.200Z,51.87
2018-12-10T10:37:23.191Z,52.45
2018-12-10T10:38:23.197Z,52.55
2018-12-10T10:39:23.202Z,52.06
2018-12-10T10:40:23.208Z,51.97
2018-12-10T10:41:31.110Z,52.06
2018-12-10T10:42:23.212Z,52.06
2018-12-10T10:43:23.221Z,51.87
2018-12-10T10:44:23.226Z,52.25
2018-12-10T10:45:23.218Z,51.77
2018-12-10T10:46:23.230Z,52.06
2018-12-10T10:47:23.236Z,51.58
2018-12-10T10:48:23.239Z,51.87
2018-12-10T10:49:23.241Z,51.77
2018-12-10T10:50:23.248Z,51.87
2018-12-10T10:51:23.281Z,51.87
2018-12-10T10:52:23.270Z,52.06
2018-12-10T10:53:23.310Z,52.35
2018-12-10T10:54:23.268Z,52.45
2018-12-10T10:55:23.264Z,52.35
2018-12-10T10:56:23.271Z,52.35
2018-12-10T10:57:23.274Z,52.25
2018-12-10T10:58:23.279Z,51.77
2018-12-10T10:59:23.286Z,52.55
2018-12-10T11:00:23.291Z,52.55
2018-12-10T11:01:23.291Z,52.06
2018-12-10T11:02:23.292Z,52.35
2018-12-10T11:03:23.303Z,52.06
2018-12-10T11:04:23.310Z,52.45
2018-12-10T11:05:23.304Z,52.06
2018-12-10T11:06:23.329Z,52.64
2018-12-10T11:07:23.322Z,52.83
2018-12-10T11:08:23.322Z,52.35
2018-12-10T11:09:23.323Z,52.71
2018-12-10T11:10:23.342Z,52.25
2018-12-10T11:11:23.332Z,52.64
2018-12-10T11:12:23.338Z,52.16
2018-12-10T11:13:23.340Z,52.81
2018-12-10T11:14:23.341Z,52.55
2018-12-10T11:15:23.346Z,52.83
2018-12-10T11:16:23.349Z,52.64
2018-12-10T11:17:23.366Z,52.73
2018-12-10T11:18:23.366Z,52.33
2018-12-10T11:19:23.378Z,52.83
2018-12-10T11:20:23.371Z,52.73
2018-12-10T11:21:23.370Z,52.83
2018-12-10T11:22:23.378Z,52.06
2018-12-10T11:23:23.394Z,52.35
2018-12-10T11:24:23.383Z,52.16
2018-12-10T11:25:23.388Z,52.25
2018-12-10T11:26:23.379Z,52.81
2018-12-10T11:27:23.398Z,52.16
2018-12-10T11:28:23.400Z,52.61
2018-12-10T11:29:23.407Z,52.71
2018-12-10T11:30:23.418Z,52.06
2018-12-10T11:31:23.413Z,52.45
2018-12-10T11:32:23.423Z,52.25
2018-12-10T11:33:23.426Z,52.35
2018-12-10T11:34:23.422Z,52.64
2018-12-10T11:35:23.429Z,52.73
2018-12-10T11:36:23.439Z,52.55
2018-12-10T11:37:23.441Z,53.13
2018-12-10T11:38:23.433Z,53.03
2018-12-10T11:39:23.443Z,52.83
2018-12-10T11:40:23.447Z,52.93
2018-12-10T11:41:23.449Z,52.83
2018-12-10T11:42:23.458Z,52.83
2018-12-10T11:43:23.458Z,52.35
2018-12-10T11:44:23.464Z,52.06
2018-12-10T11:45:23.462Z,52.25
2018-12-10T11:46:23.475Z,52.06
2018-12-10T11:47:23.477Z,52.25
2018-12-10T11:48:23.479Z,52.16
2018-12-10T11:49:23.485Z,52.06
2018-12-10T11:50:23.535Z,51.97
2018-12-10T11:51:23.491Z,52.16
2018-12-10T11:52:23.500Z,52.06
2018-12-10T11:53:23.519Z,52.25
2018-12-10T11:54:23.521Z,52.06
2018-12-10T11:55:23.507Z,52.25
2018-12-10T11:56:23.525Z,52.45
2018-12-10T11:57:23.522Z,52.35
2018-12-10T11:58:23.518Z,52.35
2018-12-10T11:59:23.523Z,52.35
2018-12-10T12:00:23.527Z,52.55
2018-12-10T12:01:23.532Z,52.55
2018-12-10T12:02:29.733Z,52.35
2018-12-10T12:03:23.549Z,52.45
2018-12-10T12:04:23.546Z,52.35
2018-12-10T12:05:23.555Z,52.55
2018-12-10T12:06:23.557Z,52.35
2018-12-10T12:07:23.555Z,52.55
2018-12-10T12:08:23.561Z,52.55
2018-12-10T12:09:23.562Z,52.64
2018-12-10T12:10:23.567Z,52.35
2018-12-10T12:11:23.580Z,52.35
2018-12-10T12:12:23.578Z,52.35
2018-12-10T12:13:23.585Z,52.35
2018-12-10T12:14:23.591Z,52.25
2018-12-10T12:15:23.583Z,52.25
2018-12-10T12:16:23.599Z,52.16
2018-12-10T12:17:23.595Z,52.35
2018-12-10T12:18:23.605Z,52.35
2018-12-10T12:19:23.599Z,52.25
2018-12-10T12:20:23.606Z,52.35
2018-12-10T12:21:23.609Z,52.23
2018-12-10T12:22:23.632Z,52.45
2018-12-10T12:23:23.621Z,52.64
2018-12-10T12:24:23.625Z,52.45
2018-12-10T12:25:23.627Z,52.06
2018-12-10T12:26:23.630Z,52.83
2018-12-10T12:27:23.923Z,52.83
2018-12-10T12:28:23.639Z,52.64
2018-12-10T12:29:23.644Z,52.64
2018-12-10T12:30:23.648Z,53.22
2018-12-10T12:31:23.658Z,53.22
2018-12-10T12:32:23.657Z,53.03
2018-12-10T12:33:23.658Z,52.83
2018-12-10T12:34:23.668Z,52.83
2018-12-10T12:35:23.665Z,52.83
2018-12-10T12:36:23.664Z,52.93
2018-12-10T12:37:23.677Z,53.03
2018-12-10T12:38:23.677Z,53.03
2018-12-10T12:39:23.681Z,52.93
2018-12-10T12:40:23.689Z,52.83
2018-12-10T12:41:23.679Z,52.93
2018-12-10T12:42:23.684Z,52.55
2018-12-10T12:43:23.694Z,52.83
2018-12-10T12:44:23.703Z,52.93
2018-12-10T12:45:23.706Z,53.03
2018-12-10T12:46:23.702Z,52.83
2018-12-10T12:47:23.722Z,53.13
2018-12-10T12:48:23.725Z,53.13
2018-12-10T12:49:23.726Z,53.31
2018-12-10T12:50:23.723Z,53.22
2018-12-10T12:51:23.730Z,53.41
2018-12-10T12:52:23.734Z,53.13